Time;durP1;ratioP1;P1;durP2;ratioP2;P2;SDS_P1;SDS_P2;PMS_P1;PMS_P2;Temp;Humidity;BMP_temperature;BMP_pressure;BME280_temperature;BME280_humidity;BME280_pressure;Samples;Min_cycle;Max_cycle;Signal;HPM_P1;HPM_P2
2022/03/03 00:02:15;;;;;;;13.48;5.80;;;;;;;;;;5039673;28;20049;-59
2022/03/03 00:04:43;;;;;;;14.03;6.00;;;;;;;;;;5048114;28;20041;-56
2022/03/03 00:07:09;;;;;;;12.98;5.43;;;;;;;;;;5041773;28;20137;-59
2022/03/03 00:09:36;;;;;;;15.75;5.93;;;;;;;;;;5011815;28;20037;-58
2022/03/03 00:12:02;;;;;;;12.98;5.75;;;;;;;;;;5021803;28;20075;-57
2022/03/03 00:14:29;;;;;;;18.15;5.97;;;;;;;;;;5031760;28;20135;-58
2022/03/03 00:16:55;;;;;;;15.35;6.22;;;;;;;;;;5040140;28;20152;-59
2022/03/03 00:19:24;;;;;;;11.93;5.45;;;;;;;;;;5010692;28;20056;-58
2022/03/03 00:21:50;;;;;;;12.70;5.20;;;;;;;;;;5015771;28;20057;-58
2022/03/03 00:24:16;;;;;;;14.85;5.63;;;;;;;;;;5047564;28;20088;-57
2022/03/03 00:26:44;;;;;;;16.77;6.55;;;;;;;;;;5040435;28;20057;-60
2022/03/03 00:29:11;;;;;;;11.33;5.23;;;;;;;;;;5016838;28;20127;-57
2022/03/03 00:31:38;;;;;;;18.42;6.07;;;;;;;;;;5043506;28;20307;-60
2022/03/03 00:34:04;;;;;;;14.13;6.07;;;;;;;;;;5047343;28;20142;-58
2022/03/03 00:36:34;;;;;;;15.70;6.40;;;;;;;;;;5035472;28;20049;-58
2022/03/03 00:39:00;;;;;;;14.13;6.05;;;;;;;;;;5011553;28;20375;-60
2022/03/03 00:41:27;;;;;;;10.25;4.85;;;;;;;;;;5029099;28;20572;-59
2022/03/03 00:43:53;;;;;;;11.32;4.63;;;;;;;;;;5028293;28;20103;-60
2022/03/03 00:46:20;;;;;;;13.55;5.30;;;;;;;;;;5032401;28;20111;-54
2022/03/03 00:48:46;;;;;;;13.23;4.95;;;;;;;;;;5038779;28;20049;-60
2022/03/03 00:51:13;;;;;;;12.20;5.40;;;;;;;;;;5030030;28;20059;-54
2022/03/03 00:53:41;;;;;;;13.90;5.53;;;;;;;;;;5032717;28;20072;-55
2022/03/03 00:56:08;;;;;;;12.18;4.88;;;;;;;;;;5043753;28;20115;-53
2022/03/03 00:58:34;;;;;;;12.15;5.25;;;;;;;;;;5040017;28;20127;-55
2022/03/03 01:01:01;;;;;;;12.88;5.43;;;;;;;;;;5010506;28;20057;-56
2022/03/03 01:03:28;;;;;;;15.55;5.45;;;;;;;;;;5011619;28;20136;-56
2022/03/03 01:05:57;;;;;;;10.93;4.80;;;;;;;;;;5026051;28;20072;-56
2022/03/03 01:08:26;;;;;;;16.48;6.03;;;;;;;;;;5039084;28;20053;-52
2022/03/03 01:10:54;;;;;;;11.88;4.82;;;;;;;;;;5026152;28;20045;-57
2022/03/03 01:13:22;;;;;;;16.23;5.85;;;;;;;;;;5042533;28;20106;-54
2022/03/03 01:15:51;;;;;;;14.10;4.85;;;;;;;;;;5029611;28;20522;-51
2022/03/03 01:18:17;;;;;;;13.05;4.75;;;;;;;;;;5025611;28;20068;-51
2022/03/03 01:20:44;;;;;;;21.50;6.65;;;;;;;;;;5020265;28;20060;-54
2022/03/03 01:23:10;;;;;;;11.48;5.05;;;;;;;;;;5045883;28;20119;-56
2022/03/03 01:25:37;;;;;;;13.23;4.97;;;;;;;;;;5038914;28;20045;-59
2022/03/03 01:28:05;;;;;;;12.68;5.10;;;;;;;;;;5026022;28;20045;-59
2022/03/03 01:30:32;;;;;;;16.33;5.47;;;;;;;;;;5025077;28;20057;-58
2022/03/03 01:32:58;;;;;;;15.63;5.50;;;;;;;;;;5029522;28;20048;-58
2022/03/03 01:35:25;;;;;;;14.48;6.18;;;;;;;;;;5039161;28;20060;-54
2022/03/03 01:37:51;;;;;;;18.13;6.63;;;;;;;;;;5043084;28;20510;-60
2022/03/03 01:40:22;;;;;;;15.05;5.63;;;;;;;;;;5038992;28;20057;-59
2022/03/03 01:42:51;;;;;;;15.27;5.55;;;;;;;;;;5027178;28;20567;-59
2022/03/03 01:45:20;;;;;;;15.70;6.43;;;;;;;;;;5025269;28;20045;-58
2022/03/03 01:47:46;;;;;;;16.83;5.88;;;;;;;;;;5028785;28;20056;-58
2022/03/03 01:50:13;;;;;;;13.77;5.78;;;;;;;;;;5033348;28;20049;-56
2022/03/03 01:52:39;;;;;;;15.85;5.93;;;;;;;;;;5045875;28;20073;-58
2022/03/03 01:55:06;;;;;;;10.65;4.60;;;;;;;;;;5025550;28;20095;-58
2022/03/03 01:57:33;;;;;;;17.95;5.97;;;;;;;;;;5029074;28;20060;-58
2022/03/03 01:59:59;;;;;;;16.08;6.25;;;;;;;;;;5042098;28;20088;-58
2022/03/03 02:02:30;;;;;;;19.02;5.85;;;;;;;;;;5028886;28;20168;-56
2022/03/03 02:04:57;;;;;;;13.50;5.20;;;;;;;;;;5044024;28;20057;-59
2022/03/03 02:07:24;;;;;;;11.93;4.72;;;;;;;;;;5009793;28;20053;-57
2022/03/03 02:09:51;;;;;;;16.02;6.15;;;;;;;;;;5027282;28;20060;-58
2022/03/03 02:12:17;;;;;;;12.75;5.18;;;;;;;;;;5044794;28;20041;-58
2022/03/03 02:14:45;;;;;;;14.35;5.68;;;;;;;;;;5047962;28;20128;-56
2022/03/03 02:17:12;;;;;;;11.27;5.35;;;;;;;;;;5025550;28;20048;-56
2022/03/03 02:19:40;;;;;;;14.80;4.50;;;;;;;;;;5028807;28;20159;-51
2022/03/03 02:22:08;;;;;;;11.38;4.88;;;;;;;;;;5019534;28;20081;-56
2022/03/03 02:24:37;;;;;;;11.60;5.20;;;;;;;;;;5042488;28;20060;-57
2022/03/03 02:27:04;;;;;;;16.60;6.10;;;;;;;;;;5041718;28;20075;-56
2022/03/03 02:29:31;;;;;;;13.45;5.22;;;;;;;;;;5043259;28;20053;-53
2022/03/03 02:31:57;;;;;;;13.48;4.90;;;;;;;;;;5037822;28;20072;-54
2022/03/03 02:34:26;;;;;;;12.98;5.35;;;;;;;;;;5041794;28;20157;-56
2022/03/03 02:36:54;;;;;;;14.10;5.55;;;;;;;;;;5040832;28;20110;-56
2022/03/03 02:39:22;;;;;;;12.25;5.40;;;;;;;;;;5028575;28;20049;-56
2022/03/03 02:41:48;;;;;;;17.23;5.43;;;;;;;;;;5037928;28;20523;-56
2022/03/03 02:44:15;;;;;;;16.48;5.60;;;;;;;;;;5041750;28;20310;-56
2022/03/03 02:46:42;;;;;;;15.70;5.18;;;;;;;;;;5039993;28;20042;-55
2022/03/03 02:49:09;;;;;;;17.77;6.07;;;;;;;;;;5044883;28;20143;-57
2022/03/03 02:51:36;;;;;;;18.83;6.95;;;;;;;;;;5045762;28;20057;-56
2022/03/03 02:54:02;;;;;;;16.63;6.10;;;;;;;;;;5044215;28;20141;-55
2022/03/03 02:56:31;;;;;;;17.58;5.38;;;;;;;;;;5032075;28;20141;-55
2022/03/03 02:58:59;;;;;;;14.27;4.80;;;;;;;;;;5028758;28;20116;-57
2022/03/03 03:01:26;;;;;;;13.13;5.22;;;;;;;;;;5049080;28;20084;-56
2022/03/03 03:03:52;;;;;;;15.90;6.07;;;;;;;;;;5043971;28;20045;-56
2022/03/03 03:06:19;;;;;;;16.02;5.38;;;;;;;;;;5029207;28;20065;-54
2022/03/03 03:08:45;;;;;;;17.23;6.13;;;;;;;;;;5009237;28;20064;-52
2022/03/03 03:11:12;;;;;;;17.40;6.45;;;;;;;;;;5012943;28;20057;-55
2022/03/03 03:13:40;;;;;;;14.45;6.28;;;;;;;;;;5008933;28;20160;-57
2022/03/03 03:16:06;;;;;;;13.37;5.50;;;;;;;;;;5024136;28;20103;-58
2022/03/03 03:18:33;;;;;;;14.65;6.07;;;;;;;;;;5019398;28;20379;-59
2022/03/03 03:20:59;;;;;;;15.43;6.35;;;;;;;;;;5028682;28;20069;-52
2022/03/03 03:23:27;;;;;;;16.67;6.22;;;;;;;;;;5022644;28;20046;-55
2022/03/03 03:25:55;;;;;;;16.20;6.20;;;;;;;;;;5009619;28;20062;-56
2022/03/03 03:28:21;;;;;;;16.25;6.40;;;;;;;;;;5008116;28;20057;-57
2022/03/03 03:30:49;;;;;;;18.20;6.95;;;;;;;;;;5034515;28;20064;-59
2022/03/03 03:33:16;;;;;;;21.23;8.13;;;;;;;;;;5042385;28;20393;-55
2022/03/03 03:35:42;;;;;;;16.35;5.88;;;;;;;;;;5009282;28;20865;-57
2022/03/03 03:38:09;;;;;;;19.20;6.03;;;;;;;;;;5013778;28;20123;-60
2022/03/03 03:40:36;;;;;;;16.52;6.70;;;;;;;;;;5011231;28;20053;-59
2022/03/03 03:43:02;;;;;;;18.77;6.70;;;;;;;;;;5014487;28;20103;-60
2022/03/03 03:45:29;;;;;;;16.48;6.97;;;;;;;;;;5008778;28;20053;-55
2022/03/03 03:47:57;;;;;;;13.80;6.15;;;;;;;;;;5012038;28;20434;-52
2022/03/03 03:50:23;;;;;;;14.95;5.45;;;;;;;;;;5024671;28;20551;-54
2022/03/03 03:52:52;;;;;;;13.38;6.00;;;;;;;;;;5028244;28;20418;-58
2022/03/03 03:55:18;;;;;;;16.05;7.03;;;;;;;;;;5027021;28;20049;-60
2022/03/03 03:57:47;;;;;;;16.67;6.60;;;;;;;;;;5008113;28;20081;-57
2022/03/03 04:00:15;;;;;;;14.77;5.18;;;;;;;;;;5006928;28;20148;-61
2022/03/03 04:02:41;;;;;;;16.65;6.13;;;;;;;;;;5028828;28;20057;-57
2022/03/03 04:05:10;;;;;;;17.55;6.75;;;;;;;;;;5020744;28;20053;-55
2022/03/03 04:07:37;;;;;;;17.00;6.15;;;;;;;;;;5008059;28;20144;-55
2022/03/03 04:10:04;;;;;;;13.88;5.70;;;;;;;;;;5007075;28;20224;-58
2022/03/03 04:12:30;;;;;;;17.23;6.57;;;;;;;;;;5011049;28;20571;-56
2022/03/03 04:14:57;;;;;;;15.55;6.18;;;;;;;;;;5009626;28;20467;-59
2022/03/03 04:17:23;;;;;;;16.23;6.07;;;;;;;;;;5046576;28;20334;-58
2022/03/03 04:19:50;;;;;;;14.32;5.53;;;;;;;;;;5030471;28;20063;-55
2022/03/03 04:22:19;;;;;;;16.10;6.43;;;;;;;;;;5005949;28;20096;-56
2022/03/03 04:24:45;;;;;;;14.23;5.88;;;;;;;;;;5040539;28;20057;-56
2022/03/03 04:27:12;;;;;;;18.73;7.22;;;;;;;;;;5022778;28;20055;-56
2022/03/03 04:29:38;;;;;;;14.88;6.30;;;;;;;;;;5022340;28;20061;-57
2022/03/03 04:32:05;;;;;;;17.02;6.13;;;;;;;;;;5011079;28;20149;-59
2022/03/03 04:34:32;;;;;;;23.42;7.68;;;;;;;;;;5024507;28;20045;-56
2022/03/03 04:36:59;;;;;;;11.05;4.68;;;;;;;;;;5050452;28;20080;-56
2022/03/03 04:39:27;;;;;;;15.40;6.10;;;;;;;;;;5031196;28;20124;-57
2022/03/03 04:41:56;;;;;;;15.02;5.35;;;;;;;;;;5015324;28;20050;-56
2022/03/03 04:44:23;;;;;;;15.00;5.65;;;;;;;;;;5007084;28;20082;-53
2022/03/03 04:46:58;;;;;;;18.10;6.63;;;;;;;;;;5004035;28;20103;-56
2022/03/03 04:49:24;;;;;;;15.15;6.18;;;;;;;;;;5007682;28;20082;-53
2022/03/03 04:51:51;;;;;;;12.43;5.60;;;;;;;;;;5037254;28;20046;-53
2022/03/03 04:54:19;;;;;;;18.17;7.20;;;;;;;;;;5052225;28;20048;-54
2022/03/03 04:56:47;;;;;;;14.25;6.18;;;;;;;;;;5040762;28;20178;-59
2022/03/03 04:59:13;;;;;;;23.55;6.63;;;;;;;;;;5030191;28;20095;-56
2022/03/03 05:01:40;;;;;;;19.48;7.20;;;;;;;;;;5030361;28;20053;-56
2022/03/03 05:04:06;;;;;;;19.23;7.50;;;;;;;;;;5020601;28;20081;-60
2022/03/03 05:06:34;;;;;;;16.33;6.65;;;;;;;;;;5045235;28;20077;-54
2022/03/03 05:09:00;;;;;;;18.33;7.25;;;;;;;;;;5040748;28;20053;-59
2022/03/03 05:11:27;;;;;;;17.63;7.00;;;;;;;;;;5045579;28;20081;-60
2022/03/03 05:13:55;;;;;;;19.30;6.93;;;;;;;;;;5042597;28;20059;-58
2022/03/03 05:16:22;;;;;;;18.30;7.40;;;;;;;;;;5046207;28;20136;-54
2022/03/03 05:18:48;;;;;;;15.68;6.25;;;;;;;;;;5039009;28;20603;-55
2022/03/03 05:21:15;;;;;;;16.85;6.32;;;;;;;;;;5010178;28;20065;-55
2022/03/03 05:23:41;;;;;;;19.63;7.13;;;;;;;;;;5015182;28;20049;-56
2022/03/03 05:26:09;;;;;;;13.77;6.28;;;;;;;;;;5046581;28;20128;-57
2022/03/03 05:28:36;;;;;;;14.50;5.70;;;;;;;;;;5014427;28;20048;-57
2022/03/03 05:31:04;;;;;;;17.73;6.10;;;;;;;;;;5029853;28;20037;-55
2022/03/03 05:33:32;;;;;;;14.17;5.73;;;;;;;;;;5025005;28;20085;-58
2022/03/03 05:36:00;;;;;;;12.80;5.70;;;;;;;;;;5045915;28;20382;-58
2022/03/03 05:38:28;;;;;;;19.70;7.45;;;;;;;;;;5042208;28;20060;-55
2022/03/03 05:40:54;;;;;;;18.75;7.57;;;;;;;;;;5029127;28;20140;-56
2022/03/03 05:43:21;;;;;;;18.58;6.75;;;;;;;;;;5045231;28;20061;-56
2022/03/03 05:45:48;;;;;;;16.13;7.25;;;;;;;;;;5027328;28;20049;-56
2022/03/03 05:48:18;;;;;;;15.18;6.50;;;;;;;;;;5045747;28;20083;-58
2022/03/03 05:50:45;;;;;;;16.88;7.28;;;;;;;;;;5038636;28;20053;-59
2022/03/03 05:53:12;;;;;;;19.63;6.78;;;;;;;;;;5025559;28;20085;-56
2022/03/03 05:55:41;;;;;;;18.73;7.30;;;;;;;;;;5041555;28;20072;-59
2022/03/03 05:58:10;;;;;;;15.40;7.18;;;;;;;;;;5045725;28;20069;-57
2022/03/03 06:00:37;;;;;;;16.48;7.20;;;;;;;;;;5041269;28;20099;-57
2022/03/03 06:03:03;;;;;;;15.02;6.25;;;;;;;;;;5042583;28;20085;-58
2022/03/03 06:05:33;;;;;;;14.48;6.97;;;;;;;;;;5019584;28;20060;-59
2022/03/03 06:08:02;;;;;;;21.00;8.15;;;;;;;;;;5023369;28;20065;-56
2022/03/03 06:10:32;;;;;;;14.68;4.82;;;;;;;;;;5021993;28;20060;-56
2022/03/03 06:13:04;;;;;;;17.40;6.78;;;;;;;;;;5042374;28;20136;-57
2022/03/03 06:15:31;;;;;;;13.13;5.93;;;;;;;;;;5038228;28;20128;-59
2022/03/03 06:18:00;;;;;;;17.42;6.47;;;;;;;;;;5011045;28;20064;-59
2022/03/03 06:20:27;;;;;;;14.15;5.28;;;;;;;;;;5007186;28;20077;-58
2022/03/03 06:22:55;;;;;;;14.00;6.38;;;;;;;;;;5011422;28;20053;-58
2022/03/03 06:25:22;;;;;;;14.80;6.00;;;;;;;;;;5008236;28;20099;-59
2022/03/03 06:27:49;;;;;;;14.52;5.35;;;;;;;;;;5010474;28;20144;-61
2022/03/03 06:30:15;;;;;;;16.92;6.38;;;;;;;;;;5009659;28;20112;-59
2022/03/03 06:32:42;;;;;;;16.13;7.32;;;;;;;;;;5042866;28;20064;-60
2022/03/03 06:35:09;;;;;;;12.48;5.28;;;;;;;;;;5013094;28;20080;-60
2022/03/03 06:37:35;;;;;;;14.65;5.63;;;;;;;;;;5010261;28;20053;-58
2022/03/03 06:40:04;;;;;;;16.40;7.03;;;;;;;;;;5013188;28;20148;-59
2022/03/03 06:42:35;;;;;;;18.00;7.38;;;;;;;;;;5028946;28;20049;-58
2022/03/03 06:45:03;;;;;;;20.17;6.03;;;;;;;;;;5011076;28;20143;-56
2022/03/03 06:47:30;;;;;;;18.15;7.38;;;;;;;;;;5007006;28;20069;-59
2022/03/03 06:49:56;;;;;;;17.05;7.00;;;;;;;;;;5010332;28;20145;-58
2022/03/03 06:52:25;;;;;;;16.35;6.57;;;;;;;;;;5007859;28;20139;-57
2022/03/03 06:54:52;;;;;;;18.90;7.22;;;;;;;;;;5028828;28;20057;-58
2022/03/03 06:57:21;;;;;;;15.98;6.60;;;;;;;;;;5002400;28;20061;-57
2022/03/03 06:59:51;;;;;;;12.35;5.60;;;;;;;;;;5023203;28;20104;-58
2022/03/03 07:02:21;;;;;;;18.30;7.10;;;;;;;;;;5038711;28;20077;-58
2022/03/03 07:04:48;;;;;;;21.08;7.45;;;;;;;;;;5028408;28;20055;-57
2022/03/03 07:07:15;;;;;;;17.23;6.90;;;;;;;;;;5053039;28;20084;-58
2022/03/03 07:09:41;;;;;;;15.95;6.63;;;;;;;;;;5008760;28;20058;-58
2022/03/03 07:12:08;;;;;;;17.65;6.90;;;;;;;;;;5007881;28;21639;-60
2022/03/03 07:14:36;;;;;;;19.42;6.75;;;;;;;;;;5028700;28;20053;-57
2022/03/03 07:17:06;;;;;;;15.82;6.88;;;;;;;;;;5024046;28;20528;-59
2022/03/03 07:19:44;;;;;;;19.38;7.75;;;;;;;;;;5027846;28;20071;-57
2022/03/03 07:22:15;;;;;;;15.23;6.20;;;;;;;;;;5044483;28;20629;-60
2022/03/03 07:24:43;;;;;;;17.67;7.03;;;;;;;;;;5041036;28;20219;-60
2022/03/03 07:27:16;;;;;;;14.95;6.93;;;;;;;;;;5025498;28;20053;-60
2022/03/03 07:29:47;;;;;;;16.60;7.35;;;;;;;;;;5021328;28;20057;-57
2022/03/03 07:32:17;;;;;;;14.65;6.45;;;;;;;;;;5042896;28;20057;-57
2022/03/03 07:34:47;;;;;;;14.82;5.90;;;;;;;;;;5025897;28;20106;-57
2022/03/03 07:37:17;;;;;;;13.15;6.25;;;;;;;;;;5045507;28;20056;-58
2022/03/03 07:39:44;;;;;;;13.10;6.03;;;;;;;;;;5026239;28;20461;-57
2022/03/03 07:42:12;;;;;;;17.58;6.40;;;;;;;;;;5048546;28;20076;-58
2022/03/03 07:44:39;;;;;;;15.05;6.03;;;;;;;;;;5041704;28;20053;-59
2022/03/03 07:47:08;;;;;;;16.30;6.63;;;;;;;;;;5011720;28;20574;-57
2022/03/03 07:49:34;;;;;;;19.63;6.07;;;;;;;;;;5041491;28;20131;-58
2022/03/03 07:52:04;;;;;;;16.65;6.93;;;;;;;;;;5011961;28;20058;-58
2022/03/03 07:54:33;;;;;;;14.68;5.63;;;;;;;;;;5007389;28;20049;-58
2022/03/03 07:57:00;;;;;;;14.88;5.55;;;;;;;;;;5018626;28;20150;-54
2022/03/03 07:59:28;;;;;;;17.02;5.97;;;;;;;;;;5016020;28;20140;-57
2022/03/03 08:01:56;;;;;;;14.45;5.32;;;;;;;;;;5048886;28;20160;-56
2022/03/03 08:04:26;;;;;;;11.93;5.38;;;;;;;;;;5043322;28;20045;-57
2022/03/03 08:06:55;;;;;;;18.15;7.15;;;;;;;;;;5018437;28;20135;-59
2022/03/03 08:09:23;;;;;;;14.00;5.10;;;;;;;;;;5028176;28;20053;-59
2022/03/03 08:11:51;;;;;;;17.42;7.32;;;;;;;;;;5048213;28;20056;-57
2022/03/03 08:14:18;;;;;;;18.17;7.75;;;;;;;;;;5044653;28;20072;-59
2022/03/03 08:16:45;;;;;;;14.93;6.88;;;;;;;;;;5048292;28;20067;-59
2022/03/03 08:19:12;;;;;;;19.00;6.57;;;;;;;;;;5031454;28;20119;-56
2022/03/03 08:21:44;;;;;;;10.70;4.60;;;;;;;;;;5026790;28;20118;-58
2022/03/03 08:24:12;;;;;;;17.05;6.25;;;;;;;;;;5048220;28;20132;-57
2022/03/03 08:26:39;;;;;;;12.90;5.93;;;;;;;;;;5040842;28;20052;-59
2022/03/03 08:29:06;;;;;;;15.80;6.68;;;;;;;;;;5016202;28;20045;-59
2022/03/03 08:31:35;;;;;;;21.33;7.57;;;;;;;;;;5040559;28;20049;-59
2022/03/03 08:34:10;;;;;;;14.75;5.45;;;;;;;;;;5028052;28;20057;-58
2022/03/03 08:36:45;;;;;;;13.68;5.15;;;;;;;;;;5032880;28;20053;-59
2022/03/03 08:39:13;;;;;;;15.25;5.22;;;;;;;;;;5011059;28;20049;-59
2022/03/03 08:41:41;;;;;;;10.13;4.07;;;;;;;;;;5018767;28;20080;-58
2022/03/03 08:44:08;;;;;;;10.90;4.25;;;;;;;;;;5046010;28;20103;-60
2022/03/03 08:46:35;;;;;;;13.60;5.18;;;;;;;;;;5039962;28;20107;-58
2022/03/03 08:49:03;;;;;;;13.23;5.13;;;;;;;;;;5032798;28;20497;-58
2022/03/03 08:51:30;;;;;;;15.05;5.57;;;;;;;;;;5027403;28;20037;-60
2022/03/03 08:54:01;;;;;;;13.82;5.63;;;;;;;;;;5047240;28;20132;-58
2022/03/03 08:56:28;;;;;;;16.27;6.05;;;;;;;;;;5027669;28;20048;-57
2022/03/03 08:58:55;;;;;;;17.15;5.38;;;;;;;;;;5047836;28;20506;-59
2022/03/03 09:01:22;;;;;;;13.60;5.35;;;;;;;;;;5044757;28;20167;-59
2022/03/03 09:03:48;;;;;;;13.23;5.05;;;;;;;;;;5046451;28;20052;-60
2022/03/03 09:06:15;;;;;;;14.93;5.68;;;;;;;;;;5042212;28;20077;-57
2022/03/03 09:08:42;;;;;;;13.40;5.70;;;;;;;;;;5024846;28;20061;-57
2022/03/03 09:11:10;;;;;;;15.07;5.78;;;;;;;;;;5010110;28;20045;-58
2022/03/03 09:13:36;;;;;;;13.50;5.57;;;;;;;;;;5006978;28;20141;-60
2022/03/03 09:16:13;;;;;;;17.80;6.18;;;;;;;;;;5010732;28;20080;-57
2022/03/03 09:18:39;;;;;;;12.63;5.28;;;;;;;;;;5007490;28;20088;-56
2022/03/03 09:21:06;;;;;;;11.48;4.93;;;;;;;;;;5010222;28;20114;-58
2022/03/03 09:23:32;;;;;;;18.25;6.20;;;;;;;;;;5006083;28;20111;-59
2022/03/03 09:25:59;;;;;;;19.45;7.35;;;;;;;;;;5010679;28;20069;-58
2022/03/03 09:28:30;;;;;;;11.75;4.97;;;;;;;;;;5005221;28;20144;-59
2022/03/03 09:30:57;;;;;;;12.93;4.85;;;;;;;;;;5043692;28;20840;-59
2022/03/03 09:33:24;;;;;;;11.48;5.13;;;;;;;;;;5008317;28;20053;-60
2022/03/03 09:35:51;;;;;;;13.82;5.03;;;;;;;;;;5027871;28;20060;-55
2022/03/03 09:38:20;;;;;;;13.23;5.20;;;;;;;;;;5011730;28;20059;-56
2022/03/03 09:40:48;;;;;;;15.82;5.85;;;;;;;;;;5010028;28;20099;-58
2022/03/03 09:43:14;;;;;;;12.60;4.30;;;;;;;;;;4998205;28;20215;-59
2022/03/03 09:45:44;;;;;;;8.95;3.80;;;;;;;;;;5009553;28;20061;-59
2022/03/03 09:48:10;;;;;;;13.13;4.55;;;;;;;;;;5006124;28;20057;-56
2022/03/03 09:50:37;;;;;;;13.00;5.22;;;;;;;;;;5026441;28;20063;-55
2022/03/03 09:53:05;;;;;;;15.32;6.28;;;;;;;;;;5008699;28;20142;-55
2022/03/03 09:55:34;;;;;;;16.60;5.70;;;;;;;;;;5025051;28;20077;-56
2022/03/03 09:58:01;;;;;;;9.90;3.95;;;;;;;;;;5009687;28;20057;-60
2022/03/03 10:00:32;;;;;;;16.90;6.35;;;;;;;;;;5006086;28;20069;-57
2022/03/03 10:03:03;;;;;;;18.00;7.50;;;;;;;;;;5015820;28;20057;-55
2022/03/03 10:05:37;;;;;;;15.48;6.35;;;;;;;;;;5022265;28;20111;-59
2022/03/03 10:08:04;;;;;;;12.15;5.13;;;;;;;;;;5006188;28;20142;-61
2022/03/03 10:10:31;;;;;;;19.13;5.97;;;;;;;;;;5017291;28;20049;-62
2022/03/03 10:12:58;;;;;;;15.57;6.15;;;;;;;;;;5009654;28;20236;-60
2022/03/03 10:15:25;;;;;;;16.83;6.47;;;;;;;;;;5017797;28;20049;-62
2022/03/03 10:17:57;;;;;;;13.82;5.53;;;;;;;;;;5029255;28;20044;-56
2022/03/03 10:20:25;;;;;;;16.58;6.43;;;;;;;;;;5021443;28;20119;-53
2022/03/03 10:22:58;;;;;;;13.38;4.97;;;;;;;;;;5000718;28;20061;-58
2022/03/03 10:25:30;;;;;;;11.48;4.93;;;;;;;;;;5005937;28;20053;-60
2022/03/03 10:27:56;;;;;;;19.60;5.85;;;;;;;;;;5025783;28;20064;-58
2022/03/03 10:30:23;;;;;;;13.95;5.15;;;;;;;;;;5028248;28;20045;-59
2022/03/03 10:32:49;;;;;;;12.95;5.05;;;;;;;;;;5029281;28;20053;-58
2022/03/03 10:35:18;;;;;;;16.27;6.82;;;;;;;;;;5016127;28;20095;-56
2022/03/03 10:37:47;;;;;;;17.23;5.97;;;;;;;;;;5009097;28;20080;-54
2022/03/03 10:40:14;;;;;;;15.00;5.97;;;;;;;;;;5005630;28;20100;-58
2022/03/03 10:42:43;;;;;;;14.68;5.57;;;;;;;;;;5009366;28;20053;-59
2022/03/03 10:45:11;;;;;;;14.95;5.75;;;;;;;;;;5007042;28;20054;-55
2022/03/03 10:47:38;;;;;;;;;;;;;;;;;;4990232;28;20064;-54
2022/03/03 10:50:11;;;;;;;13.95;5.20;;;;;;;;;;5006858;28;19928;-56
2022/03/03 10:52:40;;;;;;;11.00;4.47;;;;;;;;;;5024033;28;20053;-60
2022/03/03 10:55:12;;;;;;;17.42;6.82;;;;;;;;;;5029661;28;20140;-63
2022/03/03 10:57:41;;;;;;;12.40;5.10;;;;;;;;;;5021524;28;20069;-63
2022/03/03 11:00:08;;;;;;;;;;;;;;;;;;5014957;28;20053;-63
2022/03/03 11:02:35;;;;;;;17.38;4.05;;;;;;;;;;5015665;28;19928;-63
2022/03/03 11:05:03;;;;;;;16.13;5.70;;;;;;;;;;5030701;28;20065;-56
2022/03/03 11:07:30;;;;;;;11.73;5.07;;;;;;;;;;5041239;28;20068;-54
2022/03/03 11:09:56;;;;;;;13.80;6.13;;;;;;;;;;5035398;28;20092;-58
2022/03/03 11:12:27;;;;;;;13.25;4.35;;;;;;;;;;5024442;28;20072;-59
2022/03/03 11:14:55;;;;;;;12.55;5.10;;;;;;;;;;5049154;28;20063;-58
2022/03/03 11:17:21;;;;;;;11.97;3.93;;;;;;;;;;5045092;28;20045;-50
2022/03/03 11:19:50;;;;;;;14.15;6.10;;;;;;;;;;5048325;28;20049;-59
2022/03/03 11:22:17;;;;;;;13.20;4.32;;;;;;;;;;5045317;28;20088;-61
2022/03/03 11:24:44;;;;;;;16.90;6.07;;;;;;;;;;5032084;28;20107;-58
2022/03/03 11:27:11;;;;;;;15.25;5.63;;;;;;;;;;5044545;28;20076;-55
2022/03/03 11:29:40;;;;;;;11.88;5.13;;;;;;;;;;5048122;28;20068;-53
2022/03/03 11:32:09;;;;;;;13.40;5.20;;;;;;;;;;5044616;28;20070;-61
2022/03/03 11:34:46;;;;;;;12.75;5.45;;;;;;;;;;5031909;28;20082;-64
2022/03/03 11:37:16;;;;;;;16.45;7.20;;;;;;;;;;5028661;28;20113;-62
2022/03/03 11:39:45;;;;;;;14.73;6.78;;;;;;;;;;5028085;28;20099;-56
2022/03/03 11:42:34;;;;;;;14.95;6.30;;;;;;;;;;5028790;28;20133;-58
2022/03/03 11:45:02;;;;;;;;;;;;;;;;;;5012501;28;20144;-62
2022/03/03 11:47:30;;;;;;;18.95;7.53;;;;;;;;;;5028397;28;19924;-56
2022/03/03 11:50:08;;;;;;;17.33;6.57;;;;;;;;;;5029906;28;20076;-63
2022/03/03 11:52:35;;;;;;;15.37;6.27;;;;;;;;;;5048756;28;20045;-61
2022/03/03 11:55:17;;;;;;;16.30;6.30;;;;;;;;;;5039478;28;20121;-54
2022/03/03 11:57:43;;;;;;;21.02;6.63;;;;;;;;;;5044257;28;20200;-61
2022/03/03 12:00:11;;;;;;;16.15;6.50;;;;;;;;;;5028569;28;20060;-58
2022/03/03 12:02:40;;;;;;;14.88;5.93;;;;;;;;;;5048027;28;20052;-62
2022/03/03 12:05:26;;;;;;;14.07;5.82;;;;;;;;;;5028624;28;20129;-61
2022/03/03 12:07:56;;;;;;;18.92;7.18;;;;;;;;;;5028308;28;20057;-62
2022/03/03 12:10:23;;;;;;;17.70;6.63;;;;;;;;;;5023720;28;20059;-59
2022/03/03 12:12:49;;;;;;;12.52;5.65;;;;;;;;;;5048124;28;20627;-57
2022/03/03 12:15:16;;;;;;;15.98;6.57;;;;;;;;;;5043382;28;20063;-64
2022/03/03 12:17:46;;;;;;;18.20;7.18;;;;;;;;;;5030778;28;20057;-56
2022/03/03 12:20:34;;;;;;;15.48;6.28;;;;;;;;;;5021611;28;20049;-62
2022/03/03 12:23:04;;;;;;;14.73;6.65;;;;;;;;;;4985767;28;20049;-64
2022/03/03 12:25:51;;;;;;;16.20;6.72;;;;;;;;;;5018788;28;20053;-64
2022/03/03 12:28:18;;;;;;;13.55;5.50;;;;;;;;;;5024956;28;20061;-64
2022/03/03 12:30:47;;;;;;;16.58;6.07;;;;;;;;;;5017210;28;20080;-60
2022/03/03 12:33:22;;;;;;;15.20;6.50;;;;;;;;;;5013997;28;20140;-63
2022/03/03 12:36:01;;;;;;;13.88;6.25;;;;;;;;;;5010683;28;20072;-62
2022/03/03 12:38:27;;;;;;;;;;;;;;;;;;5011447;28;20054;-62
2022/03/03 12:40:54;;;;;;;14.90;5.93;;;;;;;;;;5007964;28;20031;-62
2022/03/03 12:43:21;;;;;;;13.82;6.22;;;;;;;;;;5011211;28;20081;-61
2022/03/03 12:45:48;;;;;;;14.88;6.55;;;;;;;;;;5000039;28;20124;-65
2022/03/03 12:48:27;;;;;;;16.55;6.70;;;;;;;;;;5001013;28;20060;-59
2022/03/03 12:51:00;;;;;;;14.10;6.30;;;;;;;;;;5002914;28;20042;-64
2022/03/03 12:53:33;;;;;;;13.20;5.95;;;;;;;;;;5007769;28;20062;-67
2022/03/03 12:56:02;;;;;;;11.43;5.57;;;;;;;;;;5007369;28;20057;-66
2022/03/03 12:58:31;;;;;;;16.75;7.38;;;;;;;;;;5027256;28;20053;-62
2022/03/03 13:00:57;;;;;;;15.15;7.03;;;;;;;;;;5022077;28;20482;-65
2022/03/03 13:03:24;;;;;;;9.05;4.13;;;;;;;;;;5038014;28;20560;-64
2022/03/03 13:05:52;;;;;;;13.95;6.53;;;;;;;;;;5031699;28;20053;-64
2022/03/03 13:08:24;;;;;;;21.35;5.13;;;;;;;;;;5026632;28;20061;-65
2022/03/03 13:10:51;;;;;;;13.95;5.47;;;;;;;;;;5003434;28;20208;-64
2022/03/03 13:13:18;;;;;;;12.20;6.00;;;;;;;;;;5030578;28;20063;-67
2022/03/03 13:15:48;;;;;;;18.33;7.05;;;;;;;;;;5047087;28;20054;-67
2022/03/03 13:18:16;;;;;;;17.70;6.82;;;;;;;;;;5025632;28;20063;-67
2022/03/03 13:20:46;;;;;;;13.00;6.10;;;;;;;;;;5011965;28;20094;-63
2022/03/03 13:23:13;;;;;;;13.88;5.95;;;;;;;;;;4994940;28;20140;-62
2022/03/03 13:25:42;;;;;;;12.18;4.95;;;;;;;;;;5010571;28;20045;-66
2022/03/03 13:28:09;;;;;;;14.02;5.30;;;;;;;;;;5006488;28;20140;-67
2022/03/03 13:30:36;;;;;;;18.23;6.55;;;;;;;;;;5020377;28;20564;-67
2022/03/03 13:33:03;;;;;;;14.82;6.75;;;;;;;;;;5035014;28;20073;-68
2022/03/03 13:35:38;;;;;;;13.75;5.93;;;;;;;;;;5031049;28;20057;-68
2022/03/03 13:38:05;;;;;;;15.45;6.57;;;;;;;;;;5032012;28;20053;-60
2022/03/03 13:40:32;;;;;;;15.82;6.47;;;;;;;;;;5026645;28;20068;-60
2022/03/03 13:43:00;;;;;;;13.75;5.93;;;;;;;;;;5006514;28;20057;-64
2022/03/03 13:45:28;;;;;;;13.77;5.97;;;;;;;;;;5026305;28;20057;-63
2022/03/03 13:48:05;;;;;;;12.63;6.03;;;;;;;;;;5009840;28;20312;-61
2022/03/03 13:50:31;;;;;;;13.88;6.28;;;;;;;;;;4990502;28;20054;-64
2022/03/03 13:53:13;;;;;;;11.80;5.20;;;;;;;;;;5012091;28;20057;-65
2022/03/03 13:55:41;;;;;;;11.40;5.50;;;;;;;;;;5046578;28;20069;-67
2022/03/03 13:58:09;;;;;;;11.37;5.67;;;;;;;;;;5034980;28;20050;-65
2022/03/03 14:00:37;;;;;;;11.60;6.00;;;;;;;;;;4990840;28;20312;-61
2022/03/03 14:03:04;;;;;;;14.90;6.03;;;;;;;;;;4994401;28;20744;-67
2022/03/03 14:05:41;;;;;;;13.13;6.78;;;;;;;;;;5026186;28;20120;-63
2022/03/03 14:08:18;;;;;;;12.02;5.60;;;;;;;;;;5009401;28;20041;-64
2022/03/03 14:11:02;;;;;;;12.60;5.50;;;;;;;;;;5011863;28;20216;-67
2022/03/03 14:13:31;;;;;;;12.45;5.70;;;;;;;;;;5005209;28;20560;-63
2022/03/03 14:16:00;;;;;;;12.10;5.50;;;;;;;;;;5026175;28;20073;-64
2022/03/03 14:18:26;;;;;;;;;;;;;;;;;;5023832;28;20053;-55
2022/03/03 14:20:55;;;;;;;13.38;5.20;;;;;;;;;;5008978;28;19941;-66
2022/03/03 14:23:22;;;;;;;11.13;5.18;;;;;;;;;;5026101;28;20057;-64
2022/03/03 14:25:49;;;;;;;13.20;6.15;;;;;;;;;;5032860;28;20057;-65
2022/03/03 14:28:16;;;;;;;13.73;5.63;;;;;;;;;;5022986;28;20042;-65
2022/03/03 14:30:44;;;;;;;10.68;5.10;;;;;;;;;;5005604;28;20380;-65
2022/03/03 14:33:11;;;;;;;10.73;5.43;;;;;;;;;;5025609;28;20148;-63
2022/03/03 14:35:38;;;;;;;11.32;5.13;;;;;;;;;;4996091;28;20059;-67
2022/03/03 14:38:04;;;;;;;10.77;4.55;;;;;;;;;;5009304;28;20517;-66